KSCR/SCR METAR and TAF weather

Enter ICAO airport designator
Station Type Date Time Source
KSCR METAR 2020/09/18 07:35 UTC NOAA

KSCR 180735Z AUTO 02005G15KT 10SM OVC007 19/19 A2979 RMK AO2 T01900187


Station Type Date Time Source
KSCR Decoded METAR 2020/09/18 07:35 UTC NOAA

Station name not available
Sep 18, 2020 - 03:35 AM EDT / 2020.09.18 0735 UTC
Wind: from the NNE (020 degrees) at 6 MPH (5 KT) gusting to 17 MPH (15 KT):0
Visibility: 10 mile(s):0
Sky conditions: overcast
Temperature: 66.2 F (19.0 C)
Dew Point: 65.7 F (18.7 C)
Relative Humidity: 98%
Pressure (altimeter): 29.79 in. Hg (1008 hPa)
ob: KSCR 180735Z AUTO 02005G15KT 10SM OVC007 19/19 A2979 RMK AO2 T01900187
cycle: 7

Station Type Date Time Source
KSCR TAF UTC NOAA

Error!

Example: see airport list